createdAt,value
2023-03-21T00:01:42.244Z,5.65
2023-03-21T00:03:46.750Z,5.65
2023-03-21T00:05:51.855Z,6.88
2023-03-21T00:07:54.682Z,5.50
2023-03-21T00:10:08.620Z,5.68
2023-03-21T00:12:17.229Z,5.13
2023-03-21T00:14:20.217Z,6.75
2023-03-21T00:16:29.836Z,5.80
2023-03-21T00:18:36.655Z,5.88
2023-03-21T00:20:40.624Z,6.00
2023-03-21T00:22:43.761Z,5.55
2023-03-21T00:24:46.512Z,6.13
2023-03-21T00:26:49.157Z,4.82
2023-03-21T00:28:52.059Z,6.15
2023-03-21T00:30:58.837Z,6.10
2023-03-21T00:33:05.869Z,5.13
2023-03-21T00:35:51.597Z,4.70
2023-03-21T00:37:39.205Z,5.82
2023-03-21T00:39:41.885Z,5.18
2023-03-21T00:41:44.634Z,6.38
2023-03-21T00:43:47.302Z,7.47
2023-03-21T00:45:51.157Z,5.68
2023-03-21T00:47:53.852Z,6.00
2023-03-21T00:49:57.244Z,6.45
2023-03-21T00:52:14.644Z,5.68
2023-03-21T00:54:19.949Z,5.00
2023-03-21T00:56:23.253Z,5.65
2023-03-21T00:58:26.156Z,7.72
2023-03-21T01:00:28.886Z,4.38
2023-03-21T01:02:31.537Z,5.50
2023-03-21T01:04:35.395Z,5.72
2023-03-21T01:06:40.052Z,6.20
2023-03-21T01:08:52.284Z,6.18
2023-03-21T01:10:57.155Z,7.00
2023-03-21T01:13:00.229Z,5.60
2023-03-21T01:15:02.881Z,4.25
2023-03-21T01:17:06.554Z,5.43
2023-03-21T01:19:18.449Z,5.28
2023-03-21T01:21:27.699Z,6.13
2023-03-21T01:23:30.641Z,4.82
2023-03-21T01:25:33.283Z,5.72
2023-03-21T01:27:37.260Z,4.97
2023-03-21T01:29:39.877Z,6.20
2023-03-21T01:31:42.565Z,4.47
2023-03-21T01:33:46.033Z,5.78
2023-03-21T01:35:55.197Z,5.97
2023-03-21T01:38:02.871Z,7.22
2023-03-21T01:40:07.052Z,8.55
2023-03-21T01:42:13.693Z,4.85
2023-03-21T01:46:51.453Z,4.90
2023-03-21T01:49:03.391Z,5.30
2023-03-21T01:51:07.283Z,4.57
2023-03-21T01:53:10.110Z,6.88
2023-03-21T01:55:14.795Z,6.57
2023-03-21T01:57:25.861Z,5.75
2023-03-21T01:59:37.778Z,5.75
2023-03-21T02:01:42.276Z,4.90
2023-03-21T02:03:51.297Z,5.72
2023-03-21T02:06:00.248Z,6.35
2023-03-21T02:08:02.950Z,5.50
2023-03-21T02:10:09.860Z,7.85
2023-03-21T02:12:12.692Z,5.68
2023-03-21T02:14:26.759Z,6.57
2023-03-21T02:16:43.194Z,7.28
2023-03-21T02:18:56.590Z,5.53
2023-03-21T02:21:26.827Z,6.32
2023-03-21T02:24:06.250Z,5.47
2023-03-21T02:26:42.063Z,5.70
2023-03-21T02:28:50.313Z,7.82
2023-03-21T02:31:29.504Z,4.97
2023-03-21T02:34:07.687Z,6.05
2023-03-21T02:36:25.656Z,4.95
2023-03-21T02:38:38.353Z,5.13
2023-03-21T02:43:01.392Z,4.97
2023-03-21T02:45:10.379Z,5.88
2023-03-21T02:47:16.667Z,4.93
2023-03-21T02:49:26.026Z,5.50
2023-03-21T02:51:32.017Z,5.40
2023-03-21T02:53:41.348Z,4.72
2023-03-21T02:55:45.619Z,6.15
2023-03-21T02:57:52.506Z,5.47
2023-03-21T03:00:02.375Z,6.68
2023-03-21T03:02:08.285Z,7.18
2023-03-21T03:04:22.387Z,6.15
2023-03-21T03:06:30.388Z,5.10
2023-03-21T03:08:56.303Z,5.35
2023-03-21T03:11:15.426Z,6.50
2023-03-21T03:13:33.248Z,5.15
2023-03-21T03:15:45.538Z,6.45
2023-03-21T03:17:53.551Z,5.85
2023-03-21T03:20:16.397Z,8.15
2023-03-21T03:22:26.505Z,5.90
2023-03-21T03:24:34.051Z,6.13
2023-03-21T03:26:40.756Z,5.82
2023-03-21T03:31:05.495Z,7.20
2023-03-21T03:33:12.014Z,7.03
2023-03-21T03:35:17.426Z,7.10
2023-03-21T03:37:26.246Z,5.50
2023-03-21T03:39:36.651Z,5.93
2023-03-21T03:42:05.934Z,5.18
2023-03-21T03:44:07.297Z,5.35
2023-03-21T03:46:14.891Z,5.45
2023-03-21T03:48:26.156Z,5.93
2023-03-21T03:50:32.605Z,5.03
2023-03-21T03:52:50.009Z,5.95
2023-03-21T03:55:00.002Z,4.63
2023-03-21T03:57:03.466Z,6.35
2023-03-21T03:59:07.318Z,9.07
2023-03-21T04:01:10.909Z,5.43
2023-03-21T04:03:14.636Z,6.65
2023-03-21T04:05:21.207Z,6.55
2023-03-21T04:09:42.627Z,4.90
2023-03-21T04:11:47.505Z,8.98
2023-03-21T04:13:50.409Z,5.15
2023-03-21T04:15:53.048Z,6.45
2023-03-21T04:17:55.799Z,6.22
2023-03-21T04:20:10.985Z,5.70
2023-03-21T04:22:17.047Z,6.82
2023-03-21T04:24:19.691Z,6.43
2023-03-21T04:26:22.346Z,7.82
2023-03-21T04:28:26.399Z,5.68
2023-03-21T04:30:29.070Z,7.00
2023-03-21T04:32:33.892Z,6.18
2023-03-21T04:34:40.194Z,4.63
2023-03-21T04:36:45.670Z,5.93
2023-03-21T04:38:48.565Z,5.93
2023-03-21T04:40:51.342Z,6.13
2023-03-21T04:42:53.968Z,6.30
2023-03-21T04:44:57.906Z,6.30
2023-03-21T04:47:00.533Z,6.25
2023-03-21T04:49:03.775Z,10.07
2023-03-21T04:51:06.945Z,5.47
2023-03-21T04:53:09.535Z,5.82
2023-03-21T04:55:12.118Z,6.10
2023-03-21T04:57:14.875Z,5.63
2023-03-21T04:59:17.728Z,7.50
2023-03-21T05:01:21.671Z,6.80
2023-03-21T05:03:24.320Z,6.85
2023-03-21T05:05:27.040Z,5.97
2023-03-21T05:07:32.645Z,5.13
2023-03-21T05:09:35.399Z,5.53
2023-03-21T05:11:40.259Z,5.38
2023-03-21T05:13:42.873Z,6.25
2023-03-21T05:15:45.511Z,5.97
2023-03-21T05:17:49.613Z,5.20
2023-03-21T05:19:53.231Z,6.38
2023-03-21T05:21:55.854Z,5.53
2023-03-21T05:23:58.506Z,6.55
2023-03-21T05:26:01.132Z,5.85
2023-03-21T05:28:03.767Z,5.85
2023-03-21T05:30:09.352Z,6.47
2023-03-21T05:32:12.033Z,6.28
2023-03-21T05:34:16.055Z,6.20
2023-03-21T05:36:18.819Z,5.88
2023-03-21T05:38:21.829Z,6.05
2023-03-21T05:40:24.514Z,6.70
2023-03-21T05:42:27.226Z,5.57
2023-03-21T05:44:29.795Z,5.53
2023-03-21T05:46:32.453Z,5.97
2023-03-21T05:48:35.900Z,6.40
2023-03-21T05:50:41.245Z,9.10
2023-03-21T05:52:43.898Z,6.47
2023-03-21T05:54:46.507Z,6.97
2023-03-21T05:56:49.182Z,5.93
2023-03-21T05:58:51.810Z,6.13
2023-03-21T06:00:54.424Z,5.40
2023-03-21T06:02:57.087Z,6.70
2023-03-21T06:04:59.779Z,5.47
2023-03-21T06:07:03.883Z,6.38
2023-03-21T06:09:07.322Z,5.10
2023-03-21T06:11:24.194Z,7.30
2023-03-21T06:13:26.868Z,6.70
2023-03-21T06:15:29.647Z,9.45
2023-03-21T06:17:32.396Z,6.18
2023-03-21T06:19:35.026Z,4.82
2023-03-21T06:21:37.762Z,8.10
2023-03-21T06:23:41.774Z,8.32
2023-03-21T06:25:44.348Z,7.28
2023-03-21T06:27:47.009Z,4.40
2023-03-21T06:29:49.866Z,5.38
2023-03-21T06:31:52.530Z,6.20
2023-03-21T06:33:55.216Z,7.10
2023-03-21T06:35:59.708Z,5.22
2023-03-21T06:38:02.473Z,6.45
2023-03-21T06:40:08.690Z,6.57
2023-03-21T06:42:11.553Z,7.60
2023-03-21T06:44:14.235Z,10.88
2023-03-21T06:46:16.908Z,6.28
2023-03-21T06:48:19.558Z,6.97
2023-03-21T06:50:22.208Z,6.07
2023-03-21T06:52:24.877Z,6.93
2023-03-21T06:54:27.597Z,7.90
2023-03-21T06:56:31.605Z,6.20
2023-03-21T06:58:34.484Z,6.07
2023-03-21T07:00:37.213Z,5.70
2023-03-21T07:02:39.914Z,6.32
2023-03-21T07:04:42.876Z,6.70
2023-03-21T07:06:45.517Z,6.63
2023-03-21T07:08:48.524Z,5.80
2023-03-21T07:10:51.211Z,7.00
2023-03-21T07:12:55.425Z,6.13
2023-03-21T07:14:58.262Z,6.65
2023-03-21T07:17:01.349Z,5.60
2023-03-21T07:19:04.366Z,6.30
2023-03-21T07:21:07.812Z,5.38
2023-03-21T07:23:10.766Z,6.93
2023-03-21T07:25:13.720Z,6.13
2023-03-21T07:27:16.870Z,6.30
2023-03-21T07:29:23.169Z,5.20
2023-03-21T07:31:26.884Z,5.22
2023-03-21T07:33:29.577Z,5.35
2023-03-21T07:35:32.393Z,6.35
2023-03-21T07:37:37.553Z,8.70
2023-03-21T07:39:40.791Z,6.07
2023-03-21T07:41:43.449Z,5.18
2023-03-21T07:43:46.095Z,5.95
2023-03-21T07:45:50.082Z,8.88
2023-03-21T07:47:52.835Z,5.95
2023-03-21T07:49:55.457Z,6.93
2023-03-21T07:51:59.614Z,6.32
2023-03-21T07:54:02.736Z,6.70
2023-03-21T07:56:06.272Z,5.30
2023-03-21T07:58:08.942Z,7.72
2023-03-21T08:00:13.654Z,7.10
2023-03-21T08:02:18.525Z,7.50
2023-03-21T08:04:21.242Z,11.32
2023-03-21T08:06:24.151Z,8.40
2023-03-21T08:08:26.765Z,6.82
2023-03-21T08:10:29.580Z,6.20
2023-03-21T08:12:32.254Z,7.60
2023-03-21T08:14:34.901Z,6.28
2023-03-21T08:16:37.665Z,5.70
2023-03-21T08:18:42.775Z,6.03
2023-03-21T08:20:45.600Z,4.55
2023-03-21T08:22:48.848Z,9.02
2023-03-21T08:24:51.460Z,6.57
2023-03-21T08:26:54.078Z,6.47
2023-03-21T08:28:56.669Z,8.50
2023-03-21T08:30:59.323Z,5.93
2023-03-21T08:33:02.417Z,7.03
2023-03-21T08:35:10.030Z,7.80
2023-03-21T08:37:12.746Z,7.53
2023-03-21T08:39:15.393Z,6.15
2023-03-21T08:41:19.252Z,5.78
2023-03-21T08:43:21.927Z,6.28
2023-03-21T08:45:25.403Z,5.68
2023-03-21T08:47:28.045Z,5.53
2023-03-21T08:49:30.897Z,5.45
2023-03-21T08:51:37.522Z,6.72
2023-03-21T08:53:41.515Z,4.35
2023-03-21T08:55:45.463Z,4.72
2023-03-21T08:57:48.583Z,4.80
2023-03-21T08:59:51.386Z,5.47
2023-03-21T09:01:54.141Z,4.85
2023-03-21T09:03:56.777Z,5.18
2023-03-21T09:06:00.676Z,4.20
2023-03-21T09:08:05.943Z,5.45
2023-03-21T09:10:25.890Z,4.72
2023-03-21T09:12:28.599Z,5.07
2023-03-21T09:14:31.355Z,5.32
2023-03-21T09:16:34.649Z,6.25
2023-03-21T09:18:48.722Z,5.38
2023-03-21T09:20:51.812Z,6.45
2023-03-21T09:22:54.782Z,4.88
2023-03-21T09:24:59.303Z,4.95
2023-03-21T09:27:02.044Z,5.28
2023-03-21T09:29:05.904Z,5.30
2023-03-21T09:31:11.316Z,5.95
2023-03-21T09:33:25.390Z,4.63
2023-03-21T09:35:28.514Z,4.90
2023-03-21T09:37:32.635Z,5.13
2023-03-21T09:39:35.552Z,4.80
2023-03-21T09:41:58.851Z,4.43
2023-03-21T09:44:12.699Z,5.55
2023-03-21T09:46:25.869Z,5.40
2023-03-21T09:48:46.898Z,4.65
2023-03-21T09:50:53.819Z,3.95
2023-03-21T09:52:58.427Z,4.53
2023-03-21T09:55:01.389Z,4.47
2023-03-21T09:57:15.954Z,5.00
2023-03-21T09:59:26.268Z,4.32
2023-03-21T10:01:33.025Z,5.40
2023-03-21T10:03:36.675Z,5.60
2023-03-21T10:05:45.832Z,4.57
2023-03-21T10:07:54.308Z,4.70
2023-03-21T10:09:58.708Z,4.45
2023-03-21T10:12:04.320Z,5.57
2023-03-21T10:14:17.862Z,5.78
2023-03-21T10:16:27.645Z,4.70
2023-03-21T10:18:31.979Z,3.90
2023-03-21T10:20:37.193Z,5.80
2023-03-21T10:22:40.261Z,4.38
2023-03-21T10:24:42.972Z,4.95
2023-03-21T10:26:47.646Z,4.05
2023-03-21T10:28:53.413Z,5.15
2023-03-21T10:30:59.831Z,4.05
2023-03-21T10:33:06.002Z,4.60
2023-03-21T10:35:14.260Z,4.35
2023-03-21T10:37:17.602Z,5.35
2023-03-21T10:39:28.163Z,6.13
2023-03-21T10:41:30.898Z,5.25
2023-03-21T10:43:37.714Z,4.03
2023-03-21T10:45:40.948Z,4.15
2023-03-21T10:47:49.897Z,6.30
2023-03-21T10:50:09.898Z,3.83
2023-03-21T10:52:16.480Z,4.68
2023-03-21T10:54:21.296Z,3.38
2023-03-21T10:56:27.664Z,5.45
2023-03-21T11:00:41.187Z,3.22
2023-03-21T11:02:49.905Z,3.05
2023-03-21T11:04:54.346Z,3.25
2023-03-21T11:07:01.203Z,3.50
2023-03-21T11:09:09.616Z,3.47
2023-03-21T11:11:22.193Z,5.85
2023-03-21T11:13:27.094Z,3.70
2023-03-21T11:15:33.004Z,4.28
2023-03-21T11:17:36.672Z,5.03
2023-03-21T11:19:40.610Z,3.35
2023-03-21T11:21:44.243Z,4.15
2023-03-21T11:23:49.688Z,6.38
2023-03-21T11:25:52.958Z,4.00
2023-03-21T11:27:56.880Z,3.75
2023-03-21T11:30:02.791Z,2.65
2023-03-21T11:32:12.281Z,2.60
2023-03-21T11:34:27.377Z,2.95
2023-03-21T11:36:37.967Z,3.15
2023-03-21T11:38:41.138Z,2.20
2023-03-21T11:40:53.788Z,2.75
2023-03-21T11:42:58.063Z,2.53
2023-03-21T11:45:11.435Z,5.97
2023-03-21T11:47:14.185Z,3.42
2023-03-21T11:49:16.914Z,3.25
2023-03-21T11:51:28.029Z,2.22
2023-03-21T11:53:41.683Z,3.67
2023-03-21T11:56:01.977Z,3.80
2023-03-21T11:58:24.088Z,3.17
2023-03-21T12:00:32.923Z,2.70
2023-03-21T12:02:55.368Z,3.22
2023-03-21T12:05:05.104Z,2.72
2023-03-21T12:07:17.561Z,2.60
2023-03-21T12:11:44.222Z,2.88
2023-03-21T12:13:56.227Z,3.15
2023-03-21T12:16:11.801Z,3.25
2023-03-21T12:18:30.385Z,3.10
2023-03-21T12:20:44.798Z,3.10
2023-03-21T12:23:02.339Z,3.10
2023-03-21T12:25:12.105Z,2.97
2023-03-21T12:27:24.949Z,3.88
2023-03-21T12:29:41.781Z,2.92
2023-03-21T12:31:53.520Z,2.67
2023-03-21T12:34:11.144Z,2.90
2023-03-21T12:36:28.764Z,2.38
2023-03-21T12:38:41.488Z,3.78
2023-03-21T12:40:59.519Z,4.35
2023-03-21T12:43:34.151Z,3.63
2023-03-21T12:45:47.054Z,3.20
2023-03-21T12:47:56.062Z,2.58
2023-03-21T12:50:02.675Z,3.13
2023-03-21T12:54:17.442Z,3.33
2023-03-21T12:56:26.329Z,3.55
2023-03-21T12:58:32.183Z,3.00
2023-03-21T13:00:39.757Z,3.88
2023-03-21T13:02:45.821Z,4.07
2023-03-21T13:05:01.354Z,3.22
2023-03-21T13:07:09.584Z,3.28
2023-03-21T13:09:23.318Z,2.80
2023-03-21T13:11:33.218Z,3.03
2023-03-21T13:13:41.178Z,3.53
2023-03-21T13:15:53.781Z,3.25
2023-03-21T13:18:03.383Z,4.63
2023-03-21T13:20:19.160Z,3.08
2023-03-21T13:22:27.295Z,5.07
2023-03-21T13:24:39.408Z,4.10
2023-03-21T13:26:49.832Z,3.15
2023-03-21T13:28:53.316Z,4.00
2023-03-21T13:31:18.107Z,3.63
2023-03-21T13:33:25.885Z,2.83
2023-03-21T13:35:37.640Z,3.65
2023-03-21T13:37:42.999Z,4.72
2023-03-21T13:39:47.830Z,3.45
2023-03-21T13:41:53.188Z,4.10
2023-03-21T13:44:06.457Z,3.13
2023-03-21T13:46:11.283Z,3.17
2023-03-21T13:48:29.768Z,5.45
2023-03-21T13:50:50.661Z,2.60
2023-03-21T13:53:23.645Z,2.42
2023-03-21T13:55:30.651Z,3.13
2023-03-21T13:57:40.749Z,2.58
2023-03-21T13:59:45.605Z,3.67
2023-03-21T14:02:00.525Z,2.90
2023-03-21T14:04:16.032Z,2.15
2023-03-21T14:06:20.043Z,3.38
2023-03-21T14:08:36.524Z,2.13
2023-03-21T14:10:44.334Z,1.88
2023-03-21T14:12:49.427Z,3.20
2023-03-21T14:14:55.211Z,2.50
2023-03-21T14:16:58.952Z,2.30
2023-03-21T14:19:04.661Z,1.65
2023-03-21T14:21:09.389Z,1.85
2023-03-21T14:23:17.285Z,3.03
2023-03-21T14:25:21.877Z,3.22
2023-03-21T14:27:28.719Z,2.92
2023-03-21T14:29:35.265Z,4.63
2023-03-21T14:31:39.950Z,3.38
2023-03-21T14:33:46.641Z,3.15
2023-03-21T14:35:50.983Z,3.17
2023-03-21T14:37:53.681Z,3.20
2023-03-21T14:40:01.050Z,2.50
2023-03-21T14:42:06.529Z,3.22
2023-03-21T14:44:16.732Z,2.50
2023-03-21T14:46:22.042Z,4.57
2023-03-21T14:48:31.719Z,4.15
2023-03-21T14:50:39.711Z,3.40
2023-03-21T14:52:44.401Z,2.65
2023-03-21T14:54:48.865Z,5.70
2023-03-21T14:56:54.396Z,5.40
2023-03-21T14:58:57.478Z,6.35
2023-03-21T15:01:04.154Z,8.30
2023-03-21T15:03:08.479Z,5.15
2023-03-21T15:05:20.295Z,5.90
2023-03-21T15:07:28.733Z,5.57
2023-03-21T15:09:34.540Z,8.18
2023-03-21T15:11:39.076Z,6.15
2023-03-21T15:13:52.577Z,5.55
2023-03-21T15:15:55.586Z,6.13
2023-03-21T15:18:03.953Z,5.70
2023-03-21T15:20:11.716Z,5.20
2023-03-21T15:22:21.909Z,5.63
2023-03-21T15:24:29.433Z,3.97
2023-03-21T15:26:32.696Z,9.68
2023-03-21T15:28:36.309Z,6.03
2023-03-21T15:30:39.035Z,9.02
2023-03-21T15:32:41.721Z,8.65
2023-03-21T15:34:45.798Z,7.22
2023-03-21T15:36:56.137Z,6.18
2023-03-21T15:39:02.664Z,9.77
2023-03-21T15:43:19.715Z,4.78
2023-03-21T15:45:25.551Z,6.75
2023-03-21T15:47:42.202Z,5.82
2023-03-21T15:49:44.941Z,5.35
2023-03-21T15:51:53.558Z,5.25
2023-03-21T15:53:56.417Z,6.13
2023-03-21T15:56:01.849Z,5.13
2023-03-21T15:58:09.780Z,6.93
2023-03-21T16:00:22.881Z,6.05
2023-03-21T16:02:30.676Z,6.85
2023-03-21T16:04:33.343Z,4.70
2023-03-21T16:06:38.498Z,6.18
2023-03-21T16:08:47.623Z,6.38
2023-03-21T16:10:50.452Z,6.70
2023-03-21T16:12:53.185Z,5.90
2023-03-21T16:14:56.442Z,8.35
2023-03-21T16:16:59.552Z,4.63
2023-03-21T16:19:03.168Z,8.20
2023-03-21T16:21:06.053Z,4.72
2023-03-21T16:23:10.883Z,6.20
2023-03-21T16:25:15.369Z,5.78
2023-03-21T16:27:19.827Z,6.07
2023-03-21T16:29:22.560Z,6.55
2023-03-21T16:31:27.038Z,5.35
2023-03-21T16:33:29.651Z,5.82
2023-03-21T16:35:32.303Z,5.25
2023-03-21T16:37:34.928Z,6.63
2023-03-21T16:39:37.673Z,6.20
2023-03-21T16:41:41.771Z,6.75
2023-03-21T16:43:46.157Z,7.85
2023-03-21T16:45:48.901Z,6.95
2023-03-21T16:47:52.063Z,7.18
2023-03-21T16:49:55.669Z,8.18
2023-03-21T16:51:58.349Z,5.45
2023-03-21T16:54:01.541Z,6.43
2023-03-21T16:56:05.252Z,6.22
2023-03-21T16:58:09.371Z,6.38
2023-03-21T17:00:16.666Z,5.13
2023-03-21T17:02:19.327Z,5.88
2023-03-21T17:04:22.462Z,7.13
2023-03-21T17:06:27.476Z,8.05
2023-03-21T17:08:30.540Z,6.28
2023-03-21T17:10:33.958Z,7.22
2023-03-21T17:12:37.368Z,6.32
2023-03-21T17:14:41.984Z,6.78
2023-03-21T17:16:45.763Z,7.32
2023-03-21T17:18:49.131Z,6.93
2023-03-21T17:20:51.860Z,7.05
2023-03-21T17:22:54.502Z,8.82
2023-03-21T17:24:57.102Z,6.78
2023-03-21T17:27:01.305Z,6.53
2023-03-21T17:29:04.980Z,6.90
2023-03-21T17:31:14.051Z,6.63
2023-03-21T17:33:16.758Z,6.05
2023-03-21T17:35:20.051Z,6.72
2023-03-21T17:37:25.955Z,5.45
2023-03-21T17:39:28.890Z,7.50
2023-03-21T17:41:31.554Z,8.40
2023-03-21T17:43:34.182Z,6.90
2023-03-21T17:45:36.841Z,5.43
2023-03-21T17:47:41.543Z,5.03
2023-03-21T17:49:44.215Z,11.52
2023-03-21T17:51:47.023Z,9.82
2023-03-21T17:53:51.839Z,6.20
2023-03-21T17:55:54.599Z,7.00
2023-03-21T17:57:57.440Z,7.50
2023-03-21T18:00:00.394Z,6.55
2023-03-21T18:02:03.013Z,8.43
2023-03-21T18:04:07.211Z,9.80
2023-03-21T18:06:16.029Z,8.10
2023-03-21T18:08:18.678Z,5.68
2023-03-21T18:10:24.741Z,6.85
2023-03-21T18:12:27.607Z,7.30
2023-03-21T18:14:30.776Z,7.53
2023-03-21T18:16:33.524Z,6.30
2023-03-21T18:18:36.264Z,9.13
2023-03-21T18:20:51.638Z,5.45
2023-03-21T18:22:55.408Z,6.22
2023-03-21T18:24:58.893Z,7.90
2023-03-21T18:27:02.671Z,7.57
2023-03-21T18:31:28.247Z,6.95
2023-03-21T18:33:30.967Z,9.25
2023-03-21T18:35:33.608Z,7.43
2023-03-21T18:37:37.614Z,11.52
2023-03-21T18:39:40.785Z,6.32
2023-03-21T18:41:43.817Z,6.57
2023-03-21T18:44:06.092Z,9.10
2023-03-21T18:46:09.447Z,10.77
2023-03-21T18:48:13.240Z,6.90
2023-03-21T18:50:16.413Z,7.22
2023-03-21T18:52:19.228Z,9.20
2023-03-21T18:54:24.027Z,8.73
2023-03-21T18:57:20.071Z,7.70
2023-03-21T18:58:49.300Z,7.43
2023-03-21T19:00:53.449Z,7.53
2023-03-21T19:03:13.882Z,10.18
2023-03-21T19:05:22.576Z,9.63
2023-03-21T19:07:25.295Z,8.48
2023-03-21T19:09:32.151Z,10.20
2023-03-21T19:11:34.921Z,9.07
2023-03-21T19:13:37.767Z,9.60
2023-03-21T19:15:41.423Z,7.95
2023-03-21T19:20:07.676Z,9.18
2023-03-21T19:22:10.579Z,9.55
2023-03-21T19:24:27.099Z,8.77
2023-03-21T19:26:32.041Z,8.40
2023-03-21T19:28:34.700Z,17.75
2023-03-21T19:30:37.712Z,12.68
2023-03-21T19:32:40.686Z,10.13
2023-03-21T19:34:43.358Z,10.27
2023-03-21T19:36:51.447Z,7.75
2023-03-21T19:38:54.894Z,12.73
2023-03-21T19:41:00.032Z,7.72
2023-03-21T19:43:21.692Z,8.98
2023-03-21T19:45:26.707Z,8.27
2023-03-21T19:47:29.335Z,10.00
2023-03-21T19:50:00.748Z,9.07
2023-03-21T19:51:54.900Z,12.05
2023-03-21T19:53:57.794Z,8.13
2023-03-21T19:56:03.696Z,7.53
2023-03-21T19:58:08.029Z,7.95
2023-03-21T20:00:11.728Z,8.82
2023-03-21T20:02:34.567Z,9.65
2023-03-21T20:04:37.073Z,9.68
2023-03-21T20:06:39.760Z,7.30
2023-03-21T20:09:13.576Z,7.03
2023-03-21T20:11:05.680Z,8.95
2023-03-21T20:13:09.662Z,6.68
2023-03-21T20:15:19.308Z,9.00
2023-03-21T20:17:23.648Z,11.25
2023-03-21T20:19:27.138Z,13.30
2023-03-21T20:21:36.570Z,12.10
2023-03-21T20:23:49.352Z,13.38
2023-03-21T20:25:52.048Z,14.43
2023-03-21T20:28:12.646Z,12.60
2023-03-21T20:30:20.017Z,16.10
2023-03-21T20:32:22.698Z,11.02
2023-03-21T20:34:25.489Z,12.65
2023-03-21T20:36:43.887Z,13.07
2023-03-21T20:38:46.992Z,13.40
2023-03-21T20:40:49.655Z,11.40
2023-03-21T20:42:52.633Z,14.98
2023-03-21T20:45:00.587Z,16.15
2023-03-21T20:47:06.322Z,13.45
2023-03-21T20:49:08.939Z,14.95
2023-03-21T20:53:36.545Z,13.48
2023-03-21T20:55:39.629Z,13.10
2023-03-21T20:57:42.745Z,14.40
2023-03-21T20:59:46.000Z,12.15
2023-03-21T21:01:48.816Z,10.93
2023-03-21T21:03:54.258Z,11.82
2023-03-21T21:05:56.917Z,10.55
2023-03-21T21:07:59.654Z,11.82
2023-03-21T21:10:02.269Z,10.30
2023-03-21T21:12:07.411Z,11.60
2023-03-21T21:14:10.708Z,7.70
2023-03-21T21:16:14.153Z,13.25
2023-03-21T21:18:16.829Z,8.10
2023-03-21T21:20:20.934Z,8.95
2023-03-21T21:22:23.573Z,8.15
2023-03-21T21:24:26.212Z,12.00
2023-03-21T21:26:29.046Z,7.93
2023-03-21T21:28:32.136Z,8.55
2023-03-21T21:30:38.398Z,8.65
2023-03-21T21:32:41.883Z,8.52
2023-03-21T21:34:44.741Z,8.60
2023-03-21T21:36:49.622Z,10.73
2023-03-21T21:38:52.975Z,10.63
2023-03-21T21:41:00.206Z,10.35
2023-03-21T21:43:03.744Z,10.02
2023-03-21T21:45:08.551Z,8.82
2023-03-21T21:47:11.241Z,8.70
2023-03-21T21:49:13.896Z,9.63
2023-03-21T21:51:18.001Z,9.60
2023-03-21T21:53:22.987Z,8.85
2023-03-21T21:55:25.704Z,8.75
2023-03-21T21:57:30.445Z,7.65
2023-03-21T21:59:33.932Z,8.50
2023-03-21T22:01:38.818Z,10.13
2023-03-21T22:03:42.247Z,9.65
2023-03-21T22:05:45.356Z,8.65
2023-03-21T22:07:48.183Z,8.18
2023-03-21T22:09:52.314Z,6.40
2023-03-21T22:11:56.614Z,7.63
2023-03-21T22:13:59.291Z,8.27
2023-03-21T22:16:02.057Z,16.35
2023-03-21T22:18:05.144Z,7.80
2023-03-21T22:20:09.830Z,7.53
2023-03-21T22:22:12.492Z,8.25
2023-03-21T22:24:15.167Z,7.35
2023-03-21T22:26:19.249Z,7.43
2023-03-21T22:28:25.525Z,5.45
2023-03-21T22:30:28.213Z,7.72
2023-03-21T22:32:31.110Z,7.95
2023-03-21T22:34:33.748Z,8.55
2023-03-21T22:36:36.389Z,7.13
2023-03-21T22:38:39.093Z,6.35
2023-03-21T22:40:42.216Z,10.00
2023-03-21T22:42:46.400Z,6.70
2023-03-21T22:44:49.070Z,7.40
2023-03-21T22:46:51.716Z,9.20
2023-03-21T22:48:54.382Z,6.30
2023-03-21T22:50:57.633Z,7.45
2023-03-21T22:53:00.317Z,6.97
2023-03-21T22:55:02.940Z,8.00
2023-03-21T22:57:06.344Z,7.03
2023-03-21T22:59:10.356Z,5.95
2023-03-21T23:01:13.047Z,6.18
2023-03-21T23:03:16.694Z,5.80
2023-03-21T23:05:19.792Z,5.43
2023-03-21T23:07:22.428Z,7.57
2023-03-21T23:09:25.590Z,5.53
2023-03-21T23:11:28.218Z,5.80
2023-03-21T23:13:31.498Z,6.50
2023-03-21T23:15:35.712Z,6.25
2023-03-21T23:17:39.225Z,8.52
2023-03-21T23:19:41.801Z,6.80
2023-03-21T23:21:44.794Z,6.50
2023-03-21T23:23:49.718Z,6.45
2023-03-21T23:25:52.702Z,5.22
2023-03-21T23:27:55.864Z,6.15
2023-03-21T23:29:58.531Z,6.13
2023-03-21T23:32:02.512Z,6.15
2023-03-21T23:34:06.057Z,6.32
2023-03-21T23:36:10.764Z,7.78
2023-03-21T23:38:13.401Z,5.53
2023-03-21T23:40:16.023Z,5.80
2023-03-21T23:42:18.873Z,5.03
2023-03-21T23:44:21.481Z,6.43
2023-03-21T23:46:24.115Z,6.95
2023-03-21T23:48:28.844Z,4.47
2023-03-21T23:50:31.430Z,5.00
2023-03-21T23:52:34.398Z,6.10
2023-03-21T23:54:37.278Z,5.03
2023-03-21T23:56:39.960Z,6.78
2023-03-21T23:58:42.619Z,6.60
